createdAt,value
2023-01-04T00:01:35.142Z,1.70
2023-01-04T00:04:02.392Z,1.70
2023-01-04T00:06:29.632Z,1.80
2023-01-04T00:08:56.776Z,1.60
2023-01-04T00:11:24.963Z,1.70
2023-01-04T00:13:57.032Z,1.70
2023-01-04T00:16:28.088Z,1.30
2023-01-04T00:18:58.204Z,1.50
2023-01-04T00:21:30.801Z,1.40
2023-01-04T00:24:01.443Z,1.30
2023-01-04T00:26:32.460Z,1.30
2023-01-04T00:29:08.022Z,1.00
2023-01-04T00:31:35.757Z,1.10
2023-01-04T00:34:05.675Z,1.20
2023-01-04T00:36:34.076Z,1.30
2023-01-04T00:39:09.177Z,1.20
2023-01-04T00:42:03.407Z,1.10
2023-01-04T00:44:33.499Z,1.00
2023-01-04T00:47:03.258Z,1.10
2023-01-04T00:49:31.415Z,1.70
2023-01-04T00:51:59.267Z,0.90
2023-01-04T00:54:26.677Z,1.00
2023-01-04T00:56:54.207Z,0.90
2023-01-04T00:59:23.200Z,0.90
2023-01-04T01:01:51.871Z,1.00
2023-01-04T01:04:22.882Z,1.00
2023-01-04T01:06:51.437Z,0.90
2023-01-04T01:09:22.865Z,0.90
2023-01-04T01:11:52.938Z,1.00
2023-01-04T01:14:24.603Z,1.00
2023-01-04T01:16:59.722Z,0.60
2023-01-04T01:19:30.577Z,1.00
2023-01-04T01:21:58.732Z,0.70
2023-01-04T01:24:27.193Z,1.00
2023-01-04T01:26:55.717Z,0.80
2023-01-04T01:29:23.346Z,0.70
2023-01-04T01:31:50.443Z,0.70
2023-01-04T01:34:17.703Z,0.70
2023-01-04T01:36:44.895Z,1.00
2023-01-04T01:39:12.134Z,0.70
2023-01-04T01:41:39.564Z,0.90
2023-01-04T01:44:13.834Z,0.60
2023-01-04T01:46:49.383Z,0.60
2023-01-04T01:49:33.755Z,0.90
2023-01-04T01:52:06.713Z,0.80
2023-01-04T01:54:41.737Z,0.60
2023-01-04T01:57:16.684Z,0.50
2023-01-04T01:59:47.651Z,0.50
2023-01-04T02:02:15.027Z,0.30
2023-01-04T02:04:48.218Z,0.50
2023-01-04T02:07:22.138Z,0.30
2023-01-04T02:09:50.816Z,0.50
2023-01-04T02:12:18.227Z,0.50
2023-01-04T02:14:50.402Z,0.70
2023-01-04T02:17:49.143Z,0.50
2023-01-04T02:20:37.811Z,0.70
2023-01-04T02:23:42.689Z,0.70
2023-01-04T02:26:33.023Z,0.70
2023-01-04T02:29:51.440Z,0.60
2023-01-04T02:32:47.780Z,0.40
2023-01-04T02:35:29.151Z,0.40
2023-01-04T02:38:14.741Z,0.20
2023-01-04T02:40:49.438Z,0.30
2023-01-04T02:44:05.751Z,0.10
2023-01-04T02:46:42.289Z,0.20
2023-01-04T02:49:27.543Z,0.10
2023-01-04T02:51:54.617Z,0.10
2023-01-04T02:54:32.567Z,0.10
2023-01-04T02:57:35.935Z,0.10
2023-01-04T03:00:34.054Z,0.10
2023-01-04T03:03:40.365Z,0.20
2023-01-04T03:06:23.637Z,0.20
2023-01-04T03:09:16.974Z,0.60
2023-01-04T03:12:14.516Z,0.40
2023-01-04T03:14:54.111Z,0.30
2023-01-04T03:17:25.788Z,0.30
2023-01-04T03:19:56.665Z,0.20
2023-01-04T03:23:01.841Z,0.40
2023-01-04T03:26:00.518Z,0.20
2023-01-04T03:28:55.710Z,0.00
2023-01-04T03:31:49.262Z,-0.20
2023-01-04T03:34:35.814Z,0.10
2023-01-04T03:37:27.199Z,-0.30
2023-01-04T03:40:36.869Z,-0.40
2023-01-04T03:43:34.958Z,-0.40
2023-01-04T03:46:40.284Z,-0.30
2023-01-04T03:49:31.408Z,-0.40
2023-01-04T03:52:04.411Z,-0.50
2023-01-04T03:54:39.804Z,-0.40
2023-01-04T03:57:09.541Z,-0.10
2023-01-04T03:59:45.938Z,0.00
2023-01-04T04:02:14.797Z,0.00
2023-01-04T04:05:01.701Z,0.00
2023-01-04T04:07:47.655Z,0.10
2023-01-04T04:10:14.915Z,0.10
2023-01-04T04:12:42.028Z,0.00
2023-01-04T04:15:09.996Z,-0.10
2023-01-04T04:17:37.123Z,0.00
2023-01-04T04:20:04.780Z,0.10
2023-01-04T04:22:31.974Z,0.00
2023-01-04T04:24:59.117Z,-0.10
2023-01-04T04:27:26.250Z,-0.40
2023-01-04T04:29:53.341Z,-0.10
2023-01-04T04:32:20.460Z,-0.30
2023-01-04T04:34:47.555Z,-0.10
2023-01-04T04:37:14.871Z,-0.50
2023-01-04T04:39:41.930Z,-0.60
2023-01-04T04:42:09.890Z,-0.50
2023-01-04T04:44:39.499Z,-0.60
2023-01-04T04:47:06.665Z,-0.70
2023-01-04T04:49:34.105Z,-1.10
2023-01-04T04:52:01.215Z,-0.70
2023-01-04T04:54:28.436Z,-1.00
2023-01-04T04:56:55.739Z,-0.20
2023-01-04T04:59:22.927Z,-1.00
2023-01-04T05:01:50.113Z,-0.70
2023-01-04T05:04:19.788Z,-0.70
2023-01-04T05:06:49.444Z,-1.10
2023-01-04T05:09:17.186Z,-1.10
2023-01-04T05:12:03.076Z,-1.00
2023-01-04T05:14:30.240Z,-0.90
2023-01-04T05:16:57.360Z,-0.70
2023-01-04T05:19:24.444Z,-0.70
2023-01-04T05:21:51.681Z,-0.70
2023-01-04T05:24:18.875Z,-1.00
2023-01-04T05:26:46.002Z,-1.10
2023-01-04T05:29:33.272Z,-1.20
2023-01-04T05:32:00.425Z,-1.00
2023-01-04T05:34:27.540Z,-1.00
2023-01-04T05:36:54.685Z,-1.10
2023-01-04T05:39:21.757Z,-1.20
2023-01-04T05:42:07.033Z,-1.10
2023-01-04T05:44:34.110Z,-1.00
2023-01-04T05:47:01.173Z,-1.20
2023-01-04T05:49:28.231Z,-1.10
2023-01-04T05:51:55.266Z,-1.10
2023-01-04T05:54:22.332Z,-0.60
2023-01-04T05:56:49.423Z,-0.70
2023-01-04T05:59:16.910Z,-0.60
2023-01-04T06:01:44.057Z,-0.50
2023-01-04T06:04:11.356Z,-1.00
2023-01-04T06:06:38.529Z,-0.70
2023-01-04T06:09:05.801Z,-1.10
2023-01-04T06:11:32.911Z,-0.70
2023-01-04T06:14:00.113Z,-0.90
2023-01-04T06:16:27.317Z,-0.90
2023-01-04T06:18:55.547Z,-0.90
2023-01-04T06:21:22.735Z,-0.70
2023-01-04T06:23:49.899Z,-0.60
2023-01-04T06:26:17.165Z,-0.90
2023-01-04T06:28:44.363Z,-0.80
2023-01-04T06:31:12.401Z,-0.90
2023-01-04T06:33:40.308Z,-1.00
2023-01-04T06:36:07.997Z,-0.90
2023-01-04T06:38:47.584Z,-1.20
2023-01-04T06:41:15.160Z,-1.30
2023-01-04T06:43:42.393Z,-1.30
2023-01-04T06:46:09.732Z,-1.30
2023-01-04T06:48:36.967Z,-1.40
2023-01-04T06:51:04.413Z,-1.80
2023-01-04T06:53:31.601Z,-1.40
2023-01-04T06:55:59.055Z,-1.40
2023-01-04T06:58:26.516Z,-1.80
2023-01-04T07:00:55.406Z,-1.60
2023-01-04T07:03:23.478Z,-1.50
2023-01-04T07:05:50.648Z,-1.40
2023-01-04T07:08:18.219Z,-1.40
2023-01-04T07:10:45.545Z,-1.40
2023-01-04T07:13:12.923Z,-1.30
2023-01-04T07:15:41.347Z,-0.90
2023-01-04T07:18:10.537Z,-0.90
2023-01-04T07:20:38.676Z,-1.10
2023-01-04T07:23:07.797Z,-0.90
2023-01-04T07:25:35.714Z,-0.90
2023-01-04T07:28:03.537Z,-0.90
2023-01-04T07:30:31.023Z,-0.90
2023-01-04T07:32:58.305Z,-0.70
2023-01-04T07:35:26.481Z,-0.30
2023-01-04T07:37:58.295Z,0.00
2023-01-04T07:40:27.445Z,0.20
2023-01-04T07:42:57.602Z,0.20
2023-01-04T07:45:26.426Z,0.60
2023-01-04T07:47:53.955Z,0.40
2023-01-04T07:50:21.306Z,0.60
2023-01-04T07:52:48.794Z,1.00
2023-01-04T07:55:16.744Z,0.70
2023-01-04T07:57:44.013Z,0.60
2023-01-04T08:00:12.346Z,-1.40
2023-01-04T08:02:39.675Z,0.50
2023-01-04T08:05:07.687Z,0.50
2023-01-04T08:07:34.929Z,0.50
2023-01-04T08:10:02.279Z,0.60
2023-01-04T08:12:30.921Z,0.70
2023-01-04T08:14:58.263Z,0.70
2023-01-04T08:17:26.389Z,0.80
2023-01-04T08:19:53.838Z,0.70
2023-01-04T08:22:21.861Z,1.00
2023-01-04T08:24:50.136Z,0.90
2023-01-04T08:27:17.493Z,0.80
2023-01-04T08:29:45.253Z,1.40
2023-01-04T08:32:12.466Z,1.20
2023-01-04T08:34:40.098Z,1.60
2023-01-04T08:37:07.862Z,1.80
2023-01-04T08:39:36.457Z,1.90
2023-01-04T08:42:19.209Z,1.90
2023-01-04T08:44:55.598Z,2.40
2023-01-04T08:47:26.378Z,2.30
2023-01-04T08:49:53.805Z,2.30
2023-01-04T08:52:23.688Z,2.30
2023-01-04T08:54:51.793Z,2.30
2023-01-04T08:57:30.662Z,2.00
2023-01-04T09:00:00.965Z,2.10
2023-01-04T09:02:28.888Z,2.00
2023-01-04T09:05:00.246Z,2.20
2023-01-04T09:07:32.482Z,2.40
2023-01-04T09:10:01.057Z,2.70
2023-01-04T09:12:28.416Z,2.70
2023-01-04T09:14:55.660Z,3.10
2023-01-04T09:17:26.090Z,2.80
2023-01-04T09:19:56.176Z,3.00
2023-01-04T09:22:23.455Z,3.50
2023-01-04T09:24:50.748Z,3.10
2023-01-04T09:27:17.885Z,3.80
2023-01-04T09:29:45.218Z,3.90
2023-01-04T09:32:16.496Z,3.90
2023-01-04T09:34:45.046Z,5.00
2023-01-04T09:37:13.461Z,5.70
2023-01-04T09:39:40.774Z,5.50
2023-01-04T09:42:38.025Z,6.20
2023-01-04T09:45:27.594Z,6.80
2023-01-04T09:48:13.773Z,6.80
2023-01-04T09:51:05.503Z,7.20
2023-01-04T09:53:47.336Z,7.90
2023-01-04T09:56:29.315Z,8.20
2023-01-04T09:59:00.198Z,8.60
2023-01-04T10:01:48.044Z,8.70
2023-01-04T10:04:29.322Z,8.50
2023-01-04T10:07:04.713Z,8.50
2023-01-04T10:09:33.979Z,8.60
2023-01-04T10:12:18.871Z,8.60
2023-01-04T10:15:01.073Z,8.50
2023-01-04T10:20:07.893Z,8.40
2023-01-04T10:21:33.035Z,8.30
2023-01-04T10:24:32.217Z,8.00
2023-01-04T10:27:42.498Z,8.10
2023-01-04T10:30:34.425Z,8.00
2023-01-04T10:33:34.608Z,8.40
2023-01-04T10:36:02.586Z,8.30
2023-01-04T10:38:37.468Z,8.50
2023-01-04T10:41:18.376Z,8.00
2023-01-04T10:44:11.399Z,8.00
2023-01-04T10:46:49.178Z,7.90
2023-01-04T10:50:00.001Z,8.40
2023-01-04T10:52:45.700Z,8.20
2023-01-04T10:56:24.183Z,8.60
2023-01-04T10:59:13.736Z,8.70
2023-01-04T11:02:17.061Z,9.20
2023-01-04T11:05:20.957Z,9.50
2023-01-04T11:08:11.329Z,9.60
2023-01-04T11:10:56.087Z,9.60
2023-01-04T11:13:25.049Z,9.50
2023-01-04T11:15:56.040Z,9.60
2023-01-04T11:18:42.878Z,9.70
2023-01-04T11:21:15.290Z,9.80
2023-01-04T11:23:42.600Z,10.00
2023-01-04T11:26:29.373Z,10.00
2023-01-04T11:29:06.119Z,9.60
2023-01-04T11:31:51.287Z,9.70
2023-01-04T11:34:18.724Z,10.00
2023-01-04T11:36:53.097Z,9.80
2023-01-04T11:39:27.056Z,9.80
2023-01-04T11:42:03.574Z,10.00
2023-01-04T11:44:35.901Z,9.80
2023-01-04T11:47:24.327Z,9.60
2023-01-04T11:49:55.358Z,9.30
2023-01-04T11:52:55.246Z,9.60
2023-01-04T11:55:30.723Z,9.20
2023-01-04T11:58:19.808Z,9.40
2023-01-04T12:00:57.067Z,9.10
2023-01-04T12:03:39.278Z,9.50
2023-01-04T12:06:22.626Z,9.70
2023-01-04T12:08:50.595Z,9.70
2023-01-04T12:11:30.792Z,9.40
2023-01-04T12:14:00.428Z,9.70
2023-01-04T12:16:52.961Z,9.50
2023-01-04T12:19:22.100Z,9.50
2023-01-04T12:21:57.207Z,9.30
2023-01-04T12:24:46.204Z,9.20
2023-01-04T12:27:15.336Z,9.10
2023-01-04T12:30:08.045Z,9.50
2023-01-04T12:32:35.363Z,9.20
2023-01-04T12:35:04.919Z,9.00
2023-01-04T12:37:38.325Z,9.00
2023-01-04T12:40:48.712Z,8.90
2023-01-04T12:43:27.111Z,8.90
2023-01-04T12:46:52.391Z,8.80
2023-01-04T12:49:29.043Z,8.90
2023-01-04T12:55:00.684Z,8.60
2023-01-04T12:57:38.109Z,8.50
2023-01-04T13:00:18.311Z,8.40
2023-01-04T13:03:17.243Z,8.50
2023-01-04T13:05:59.246Z,8.50
2023-01-04T13:08:28.243Z,8.50
2023-01-04T13:11:19.780Z,8.50
2023-01-04T13:13:58.698Z,8.50
2023-01-04T13:16:54.648Z,8.40
2023-01-04T13:19:25.604Z,8.40
2023-01-04T13:21:54.973Z,8.60
2023-01-04T13:24:37.104Z,8.40
2023-01-04T13:27:14.918Z,7.70
2023-01-04T13:29:42.679Z,8.50
2023-01-04T13:32:28.433Z,8.20
2023-01-04T13:35:13.580Z,8.10
2023-01-04T13:37:45.566Z,7.70
2023-01-04T13:40:31.803Z,7.90
2023-01-04T13:43:39.024Z,7.80
2023-01-04T13:46:20.241Z,7.90
2023-01-04T13:48:53.623Z,8.20
2023-01-04T13:51:38.109Z,7.90
2023-01-04T13:54:22.006Z,8.00
2023-01-04T13:59:38.724Z,7.90
2023-01-04T14:02:21.655Z,7.80
2023-01-04T14:04:50.999Z,7.90
2023-01-04T14:07:25.647Z,8.00
2023-01-04T14:10:00.250Z,7.90
2023-01-04T14:12:30.073Z,8.00
2023-01-04T14:15:24.601Z,7.90
2023-01-04T14:17:54.887Z,8.00
2023-01-04T14:20:24.638Z,8.20
2023-01-04T14:22:59.339Z,7.90
2023-01-04T14:25:38.485Z,7.80
2023-01-04T14:28:27.300Z,7.80
2023-01-04T14:31:06.989Z,7.60
2023-01-04T14:33:46.151Z,7.70
2023-01-04T14:36:28.270Z,7.70
2023-01-04T14:39:10.357Z,7.90
2023-01-04T14:41:51.696Z,7.70
2023-01-04T14:44:31.328Z,7.40
2023-01-04T14:47:04.179Z,7.70
2023-01-04T14:49:31.742Z,7.60
2023-01-04T14:52:09.778Z,7.70
2023-01-04T14:54:39.218Z,7.50
2023-01-04T14:57:06.729Z,7.50
2023-01-04T14:59:34.938Z,7.60
2023-01-04T15:02:02.380Z,7.60
2023-01-04T15:04:30.118Z,7.40
2023-01-04T15:07:04.301Z,7.40
2023-01-04T15:09:31.710Z,7.40
2023-01-04T15:11:59.429Z,7.40
2023-01-04T15:14:27.128Z,7.00
2023-01-04T15:16:54.726Z,7.20
2023-01-04T15:19:23.028Z,7.20
2023-01-04T15:21:52.778Z,7.00
2023-01-04T15:24:20.119Z,7.10
2023-01-04T15:26:47.461Z,6.80
2023-01-04T15:29:14.822Z,7.20
2023-01-04T15:31:43.904Z,7.00
2023-01-04T15:34:11.261Z,7.10
2023-01-04T15:36:41.219Z,6.90
2023-01-04T15:39:12.780Z,7.00
2023-01-04T15:41:59.369Z,6.90
2023-01-04T15:44:26.828Z,6.90
2023-01-04T15:46:55.680Z,6.80
2023-01-04T15:49:23.014Z,6.80
2023-01-04T15:51:50.569Z,7.10
2023-01-04T15:54:17.807Z,6.70
2023-01-04T15:56:45.123Z,6.80
2023-01-04T15:59:13.839Z,7.10
2023-01-04T16:01:41.100Z,6.70
2023-01-04T16:04:09.455Z,6.70
2023-01-04T16:06:36.744Z,6.70
2023-01-04T16:09:05.698Z,6.70
2023-01-04T16:11:33.169Z,6.60
2023-01-04T16:14:00.593Z,6.60
2023-01-04T16:16:28.710Z,6.80
2023-01-04T16:18:57.556Z,6.70
2023-01-04T16:21:28.403Z,6.70
2023-01-04T16:24:07.180Z,6.70
2023-01-04T16:26:44.499Z,6.70
2023-01-04T16:29:13.278Z,6.60
2023-01-04T16:31:42.896Z,6.60
2023-01-04T16:34:15.568Z,6.70
2023-01-04T16:36:42.845Z,6.70
2023-01-04T16:39:13.071Z,6.70
2023-01-04T16:41:40.629Z,6.70
2023-01-04T16:44:07.769Z,6.80
2023-01-04T16:46:37.196Z,6.70
2023-01-04T16:49:14.098Z,6.60
2023-01-04T16:51:47.252Z,6.40
2023-01-04T16:54:17.428Z,6.50
2023-01-04T16:56:49.183Z,6.40
2023-01-04T16:59:20.043Z,6.50
2023-01-04T17:01:57.598Z,6.50
2023-01-04T17:04:25.892Z,6.60
2023-01-04T17:06:55.055Z,6.50
2023-01-04T17:09:22.451Z,6.50
2023-01-04T17:15:00.830Z,6.60
2023-01-04T17:17:34.746Z,6.50
2023-01-04T17:20:02.249Z,6.50
2023-01-04T17:22:34.247Z,6.70
2023-01-04T17:25:04.125Z,6.30
2023-01-04T17:27:31.289Z,6.40
2023-01-04T17:30:05.230Z,6.70
2023-01-04T17:32:32.391Z,6.30
2023-01-04T17:34:59.757Z,6.50
2023-01-04T17:37:27.327Z,6.50
2023-01-04T17:39:54.872Z,6.50
2023-01-04T17:42:23.160Z,6.20
2023-01-04T17:45:01.903Z,6.60
2023-01-04T17:47:29.442Z,6.50
2023-01-04T17:49:56.616Z,6.50
2023-01-04T17:52:30.695Z,6.50
2023-01-04T17:54:58.660Z,6.50
2023-01-04T17:57:25.753Z,6.50
2023-01-04T17:59:52.870Z,6.60
2023-01-04T18:02:20.092Z,6.70
2023-01-04T18:04:47.265Z,6.60
2023-01-04T18:07:14.462Z,6.40
2023-01-04T18:09:41.698Z,6.50
2023-01-04T18:12:08.910Z,6.20
2023-01-04T18:14:36.294Z,6.10
2023-01-04T18:17:03.507Z,6.40
2023-01-04T18:19:31.192Z,6.20
2023-01-04T18:21:59.185Z,6.40
2023-01-04T18:24:42.169Z,6.00
2023-01-04T18:27:22.641Z,6.40
2023-01-04T18:29:52.898Z,6.20
2023-01-04T18:32:21.194Z,6.30
2023-01-04T18:34:48.491Z,6.30
2023-01-04T18:37:16.623Z,6.60
2023-01-04T18:39:44.132Z,6.30
2023-01-04T18:42:11.285Z,6.30
2023-01-04T18:44:45.644Z,6.40
2023-01-04T18:47:17.134Z,6.50
2023-01-04T18:49:44.393Z,6.60
2023-01-04T18:52:12.145Z,6.40
2023-01-04T18:54:39.466Z,6.30
2023-01-04T18:57:06.573Z,6.40
2023-01-04T18:59:33.728Z,6.30
2023-01-04T19:02:02.297Z,6.30
2023-01-04T19:04:33.571Z,6.30
2023-01-04T19:07:01.759Z,6.40
2023-01-04T19:09:29.665Z,6.20
2023-01-04T19:11:56.868Z,6.10
2023-01-04T19:14:24.142Z,6.50
2023-01-04T19:16:53.262Z,6.70
2023-01-04T19:19:21.235Z,6.40
2023-01-04T19:21:48.701Z,6.40
2023-01-04T19:24:15.846Z,6.60
2023-01-04T19:26:43.530Z,6.10
2023-01-04T19:29:10.887Z,6.10
2023-01-04T19:31:38.523Z,6.40
2023-01-04T19:34:05.627Z,6.20
2023-01-04T19:36:40.334Z,6.40
2023-01-04T19:39:09.369Z,6.40
2023-01-04T19:41:38.285Z,6.60
2023-01-04T19:44:10.841Z,6.40
2023-01-04T19:46:40.419Z,6.20
2023-01-04T19:49:14.798Z,6.30
2023-01-04T19:51:45.466Z,6.40
2023-01-04T19:54:13.792Z,6.50
2023-01-04T19:56:41.326Z,6.40
2023-01-04T19:59:09.105Z,6.70
2023-01-04T20:01:36.532Z,6.50
2023-01-04T20:04:04.624Z,6.50
2023-01-04T20:06:32.880Z,6.50
2023-01-04T20:09:00.012Z,6.40
2023-01-04T20:11:27.328Z,6.40
2023-01-04T20:13:54.439Z,6.60
2023-01-04T20:16:21.898Z,6.60
2023-01-04T20:18:49.105Z,6.40
2023-01-04T20:21:16.367Z,6.30
2023-01-04T20:23:43.953Z,6.30
2023-01-04T20:26:17.598Z,6.30
2023-01-04T20:28:46.086Z,6.10
2023-01-04T20:31:17.229Z,6.20
2023-01-04T20:33:45.617Z,6.20
2023-01-04T20:36:22.293Z,6.20
2023-01-04T20:38:50.204Z,6.10
2023-01-04T20:41:21.522Z,6.40
2023-01-04T20:43:50.284Z,6.50
2023-01-04T20:46:21.636Z,6.20
2023-01-04T20:48:49.372Z,6.50
2023-01-04T20:51:21.640Z,6.20
2023-01-04T20:53:49.968Z,6.40
2023-01-04T20:56:26.019Z,6.30
2023-01-04T20:58:53.915Z,6.20
2023-01-04T21:01:22.409Z,6.40
2023-01-04T21:03:50.041Z,6.00
2023-01-04T21:06:19.008Z,6.10
2023-01-04T21:08:47.074Z,6.40
2023-01-04T21:11:17.388Z,6.30
2023-01-04T21:13:45.820Z,6.40
2023-01-04T21:16:15.145Z,6.30
2023-01-04T21:18:43.454Z,6.00
2023-01-04T21:21:17.881Z,6.20
2023-01-04T21:23:45.995Z,6.50
2023-01-04T21:26:18.116Z,6.30
2023-01-04T21:28:46.558Z,6.40
2023-01-04T21:31:24.076Z,6.20
2023-01-04T21:33:53.925Z,6.20
2023-01-04T21:36:26.385Z,6.20
2023-01-04T21:38:56.702Z,6.20
2023-01-04T21:41:26.098Z,6.00
2023-01-04T21:43:57.585Z,6.50
2023-01-04T21:46:26.490Z,6.00
2023-01-04T21:48:58.316Z,6.20
2023-01-04T21:51:25.642Z,6.40
2023-01-04T21:53:52.955Z,6.10
2023-01-04T21:56:23.847Z,6.30
2023-01-04T21:58:51.560Z,6.20
2023-01-04T22:01:31.179Z,6.30
2023-01-04T22:04:02.237Z,6.20
2023-01-04T22:06:29.861Z,6.40
2023-01-04T22:08:58.667Z,6.20
2023-01-04T22:11:28.856Z,6.20
2023-01-04T22:13:57.752Z,6.60
2023-01-04T22:16:25.592Z,6.30
2023-01-04T22:18:52.855Z,6.40
2023-01-04T22:21:23.992Z,6.30
2023-01-04T22:23:51.959Z,6.30
2023-01-04T22:26:19.466Z,6.40
2023-01-04T22:28:46.665Z,6.30
2023-01-04T22:31:15.070Z,6.40
2023-01-04T22:33:43.054Z,6.20
2023-01-04T22:36:21.142Z,6.20
2023-01-04T22:38:54.067Z,6.00
2023-01-04T22:41:24.851Z,6.10
2023-01-04T22:44:06.356Z,6.10
2023-01-04T22:46:36.592Z,6.30
2023-01-04T22:49:04.697Z,6.50
2023-01-04T22:51:32.269Z,6.30
2023-01-04T22:54:01.838Z,6.50
2023-01-04T22:56:29.782Z,5.90
2023-01-04T22:58:58.120Z,6.10
2023-01-04T23:01:31.094Z,6.30
2023-01-04T23:04:00.800Z,6.50
2023-01-04T23:06:30.732Z,6.20
2023-01-04T23:09:06.036Z,6.30
2023-01-04T23:11:35.591Z,6.20
2023-01-04T23:14:06.877Z,6.30
2023-01-04T23:16:34.275Z,6.30
2023-01-04T23:19:03.710Z,6.30
2023-01-04T23:21:33.215Z,6.10
2023-01-04T23:24:01.373Z,6.20
2023-01-04T23:26:30.589Z,6.10
2023-01-04T23:28:59.252Z,6.20
2023-01-04T23:31:29.513Z,6.20
2023-01-04T23:34:00.485Z,6.00
2023-01-04T23:36:34.683Z,6.30
2023-01-04T23:39:05.499Z,6.20
2023-01-04T23:41:45.742Z,6.20
2023-01-04T23:44:26.744Z,6.20
2023-01-04T23:46:57.834Z,6.30
2023-01-04T23:49:28.089Z,6.10
2023-01-04T23:51:55.679Z,6.20
2023-01-04T23:54:23.302Z,6.60
2023-01-04T23:56:51.069Z,6.00
2023-01-04T23:59:18.621Z,6.30
